sensor_id;sensor_type;location;lat;lon;timestamp;temperature;humidity
52301;DHT22;38528;53.214;6.562;2022-08-19T00:02:25;17.40;99.90
52301;DHT22;38528;53.214;6.562;2022-08-19T00:04:50;17.40;99.90
52301;DHT22;38528;53.214;6.562;2022-08-19T00:07:19;17.30;99.90
52301;DHT22;38528;53.214;6.562;2022-08-19T00:09:44;17.30;99.90
52301;DHT22;38528;53.214;6.562;2022-08-19T00:12:11;17.30;99.90
52301;DHT22;38528;53.214;6.562;2022-08-19T00:14:37;17.30;99.90
52301;DHT22;38528;53.214;6.562;2022-08-19T00:17:05;17.10;99.90
52301;DHT22;38528;53.214;6.562;2022-08-19T00:19:32;17.20;99.90
52301;DHT22;38528;53.214;6.562;2022-08-19T00:21:58;17.20;99.90
52301;DHT22;38528;53.214;6.562;2022-08-19T00:24:24;17.20;99.90
52301;DHT22;38528;53.214;6.562;2022-08-19T00:26:51;17.30;99.90
52301;DHT22;38528;53.214;6.562;2022-08-19T00:29:19;17.20;99.90
52301;DHT22;38528;53.214;6.562;2022-08-19T00:31:46;17.10;99.90
52301;DHT22;38528;53.214;6.562;2022-08-19T00:34:13;17.10;99.90
52301;DHT22;38528;53.214;6.562;2022-08-19T00:36:40;17.10;99.90
52301;DHT22;38528;53.214;6.562;2022-08-19T00:39:06;17.10;99.90
52301;DHT22;38528;53.214;6.562;2022-08-19T00:41:32;17.20;99.90
52301;DHT22;38528;53.214;6.562;2022-08-19T00:46:25;17.10;99.90
52301;DHT22;38528;53.214;6.562;2022-08-19T00:48:51;17.10;99.90
52301;DHT22;38528;53.214;6.562;2022-08-19T00:51:17;17.60;99.90
52301;DHT22;38528;53.214;6.562;2022-08-19T00:53:42;17.40;99.90
52301;DHT22;38528;53.214;6.562;2022-08-19T00:56:09;17.10;99.90
52301;DHT22;38528;53.214;6.562;2022-08-19T00:58:36;17.10;99.90
52301;DHT22;38528;53.214;6.562;2022-08-19T01:01:03;17.10;99.90
52301;DHT22;38528;53.214;6.562;2022-08-19T01:03:29;17.20;99.90
52301;DHT22;38528;53.214;6.562;2022-08-19T01:05:55;17.10;99.90
52301;DHT22;38528;53.214;6.562;2022-08-19T01:08:21;17.10;99.90
52301;DHT22;38528;53.214;6.562;2022-08-19T01:10:56;17.10;99.90
52301;DHT22;38528;53.214;6.562;2022-08-19T01:13:24;17.00;99.90
52301;DHT22;38528;53.214;6.562;2022-08-19T01:15:57;17.00;99.90
52301;DHT22;38528;53.214;6.562;2022-08-19T01:18:25;17.00;99.90
52301;DHT22;38528;53.214;6.562;2022-08-19T01:20:54;17.00;99.90
52301;DHT22;38528;53.214;6.562;2022-08-19T01:23:21;16.90;99.90
52301;DHT22;38528;53.214;6.562;2022-08-19T01:25:49;16.90;99.90
52301;DHT22;38528;53.214;6.562;2022-08-19T01:28:26;16.90;99.90
52301;DHT22;38528;53.214;6.562;2022-08-19T01:30:53;16.90;99.90
52301;DHT22;38528;53.214;6.562;2022-08-19T01:33:20;17.00;99.90
52301;DHT22;38528;53.214;6.562;2022-08-19T01:35:46;16.90;99.90
52301;DHT22;38528;53.214;6.562;2022-08-19T01:38:26;16.90;99.90
52301;DHT22;38528;53.214;6.562;2022-08-19T01:40:52;16.90;99.90
52301;DHT22;38528;53.214;6.562;2022-08-19T01:43:18;17.20;99.90
52301;DHT22;38528;53.214;6.562;2022-08-19T01:45:45;16.80;99.90
52301;DHT22;38528;53.214;6.562;2022-08-19T01:48:11;16.80;99.90
52301;DHT22;38528;53.214;6.562;2022-08-19T01:50:37;16.80;99.90
52301;DHT22;38528;53.214;6.562;2022-08-19T01:53:07;16.80;99.90
52301;DHT22;38528;53.214;6.562;2022-08-19T01:55:34;16.70;99.90
52301;DHT22;38528;53.214;6.562;2022-08-19T01:58:05;16.70;99.90
52301;DHT22;38528;53.214;6.562;2022-08-19T02:00:31;17.20;99.90
52301;DHT22;38528;53.214;6.562;2022-08-19T02:02:57;16.70;99.90
52301;DHT22;38528;53.214;6.562;2022-08-19T02:05:23;16.70;99.90
52301;DHT22;38528;53.214;6.562;2022-08-19T02:07:49;16.70;99.90
52301;DHT22;38528;53.214;6.562;2022-08-19T02:10:19;16.70;99.90
52301;DHT22;38528;53.214;6.562;2022-08-19T02:12:46;16.70;99.90
52301;DHT22;38528;53.214;6.562;2022-08-19T02:15:12;16.70;99.90
52301;DHT22;38528;53.214;6.562;2022-08-19T02:17:38;16.70;99.90
52301;DHT22;38528;53.214;6.562;2022-08-19T02:20:05;16.60;99.90
52301;DHT22;38528;53.214;6.562;2022-08-19T02:22:32;16.60;99.90
52301;DHT22;38528;53.214;6.562;2022-08-19T02:24:58;17.00;99.90
52301;DHT22;38528;53.214;6.562;2022-08-19T02:27:24;16.70;99.90
52301;DHT22;38528;53.214;6.562;2022-08-19T02:29:51;16.60;99.90
52301;DHT22;38528;53.214;6.562;2022-08-19T02:32:18;16.60;99.90
52301;DHT22;38528;53.214;6.562;2022-08-19T02:34:47;16.60;99.90
52301;DHT22;38528;53.214;6.562;2022-08-19T02:37:13;16.60;99.90
52301;DHT22;38528;53.214;6.562;2022-08-19T02:39:58;16.60;99.90
52301;DHT22;38528;53.214;6.562;2022-08-19T02:42:25;16.60;99.90
52301;DHT22;38528;53.214;6.562;2022-08-19T02:44:51;16.60;99.90
52301;DHT22;38528;53.214;6.562;2022-08-19T02:47:21;16.60;99.90
52301;DHT22;38528;53.214;6.562;2022-08-19T02:49:46;16.40;99.90
52301;DHT22;38528;53.214;6.562;2022-08-19T02:52:14;16.60;99.90
52301;DHT22;38528;53.214;6.562;2022-08-19T02:54:39;16.50;99.90
52301;DHT22;38528;53.214;6.562;2022-08-19T02:57:05;16.50;99.90
52301;DHT22;38528;53.214;6.562;2022-08-19T02:59:32;16.40;99.90
52301;DHT22;38528;53.214;6.562;2022-08-19T03:01:57;16.40;99.90
52301;DHT22;38528;53.214;6.562;2022-08-19T03:04:23;16.40;99.90
52301;DHT22;38528;53.214;6.562;2022-08-19T03:06:50;16.40;99.90
52301;DHT22;38528;53.214;6.562;2022-08-19T03:09:17;16.40;99.90
52301;DHT22;38528;53.214;6.562;2022-08-19T03:11:43;16.40;99.90
52301;DHT22;38528;53.214;6.562;2022-08-19T03:14:09;16.40;99.90
52301;DHT22;38528;53.214;6.562;2022-08-19T03:16:44;16.40;99.90
52301;DHT22;38528;53.214;6.562;2022-08-19T03:19:10;16.30;99.90
52301;DHT22;38528;53.214;6.562;2022-08-19T03:21:36;16.20;99.90
52301;DHT22;38528;53.214;6.562;2022-08-19T03:24:05;16.60;99.90
52301;DHT22;38528;53.214;6.562;2022-08-19T03:26:31;16.20;99.90
52301;DHT22;38528;53.214;6.562;2022-08-19T03:28:57;16.20;99.90
52301;DHT22;38528;53.214;6.562;2022-08-19T03:31:23;16.20;99.90
52301;DHT22;38528;53.214;6.562;2022-08-19T03:33:50;16.90;99.90
52301;DHT22;38528;53.214;6.562;2022-08-19T03:36:19;16.20;99.90
52301;DHT22;38528;53.214;6.562;2022-08-19T03:38:52;16.20;99.90
52301;DHT22;38528;53.214;6.562;2022-08-19T03:41:19;16.20;99.90
52301;DHT22;38528;53.214;6.562;2022-08-19T03:43:46;16.20;99.90
52301;DHT22;38528;53.214;6.562;2022-08-19T03:46:15;16.20;99.90
52301;DHT22;38528;53.214;6.562;2022-08-19T03:48:43;16.20;99.90
52301;DHT22;38528;53.214;6.562;2022-08-19T03:51:34;16.20;99.90
52301;DHT22;38528;53.214;6.562;2022-08-19T03:54:03;16.20;99.90
52301;DHT22;38528;53.214;6.562;2022-08-19T03:56:30;16.20;99.90
52301;DHT22;38528;53.214;6.562;2022-08-19T03:58:57;16.10;99.90
52301;DHT22;38528;53.214;6.562;2022-08-19T04:01:26;16.70;99.90
52301;DHT22;38528;53.214;6.562;2022-08-19T04:03:52;16.90;99.90
52301;DHT22;38528;53.214;6.562;2022-08-19T04:06:22;16.10;99.90
52301;DHT22;38528;53.214;6.562;2022-08-19T04:08:50;16.10;99.90
52301;DHT22;38528;53.214;6.562;2022-08-19T04:11:18;16.10;99.90
52301;DHT22;38528;53.214;6.562;2022-08-19T04:13:47;16.10;99.90
52301;DHT22;38528;53.214;6.562;2022-08-19T04:16:12;16.10;99.90
52301;DHT22;38528;53.214;6.562;2022-08-19T04:18:39;16.50;99.90
52301;DHT22;38528;53.214;6.562;2022-08-19T04:21:06;16.10;99.90
52301;DHT22;38528;53.214;6.562;2022-08-19T04:23:34;16.10;99.90
52301;DHT22;38528;53.214;6.562;2022-08-19T04:26:02;16.10;99.90
52301;DHT22;38528;53.214;6.562;2022-08-19T04:28:28;16.30;99.90
52301;DHT22;38528;53.214;6.562;2022-08-19T04:30:55;16.10;99.90
52301;DHT22;38528;53.214;6.562;2022-08-19T04:33:23;16.10;99.90
52301;DHT22;38528;53.214;6.562;2022-08-19T04:35:51;16.50;99.90
52301;DHT22;38528;53.214;6.562;2022-08-19T04:38:19;16.10;99.90
52301;DHT22;38528;53.214;6.562;2022-08-19T04:40:49;16.40;99.90
52301;DHT22;38528;53.214;6.562;2022-08-19T04:43:35;16.10;99.90
52301;DHT22;38528;53.214;6.562;2022-08-19T04:46:12;16.10;99.90
52301;DHT22;38528;53.214;6.562;2022-08-19T04:48:39;16.20;99.90
52301;DHT22;38528;53.214;6.562;2022-08-19T04:51:10;16.20;99.90
52301;DHT22;38528;53.214;6.562;2022-08-19T04:53:38;16.20;99.90
52301;DHT22;38528;53.214;6.562;2022-08-19T04:56:08;16.10;99.90
52301;DHT22;38528;53.214;6.562;2022-08-19T04:58:34;16.50;99.90
52301;DHT22;38528;53.214;6.562;2022-08-19T05:01:00;16.20;99.90
52301;DHT22;38528;53.214;6.562;2022-08-19T05:03:27;16.60;99.90
52301;DHT22;38528;53.214;6.562;2022-08-19T05:05:52;16.10;99.90
52301;DHT22;38528;53.214;6.562;2022-08-19T05:08:20;16.20;99.90
52301;DHT22;38528;53.214;6.562;2022-08-19T05:10:48;16.20;99.90
52301;DHT22;38528;53.214;6.562;2022-08-19T05:13:15;16.20;99.90
52301;DHT22;38528;53.214;6.562;2022-08-19T05:15:41;16.30;99.90
52301;DHT22;38528;53.214;6.562;2022-08-19T05:18:07;16.40;99.90
52301;DHT22;38528;53.214;6.562;2022-08-19T05:20:52;16.40;99.90
52301;DHT22;38528;53.214;6.562;2022-08-19T05:23:36;16.50;99.90
52301;DHT22;38528;53.214;6.562;2022-08-19T05:26:02;16.50;99.90
52301;DHT22;38528;53.214;6.562;2022-08-19T05:28:27;16.50;99.90
52301;DHT22;38528;53.214;6.562;2022-08-19T05:30:53;16.60;99.90
52301;DHT22;38528;53.214;6.562;2022-08-19T05:33:21;16.70;99.90
52301;DHT22;38528;53.214;6.562;2022-08-19T05:35:47;16.70;99.90
52301;DHT22;38528;53.214;6.562;2022-08-19T05:38:15;17.20;99.90
52301;DHT22;38528;53.214;6.562;2022-08-19T05:40:42;16.70;99.90
52301;DHT22;38528;53.214;6.562;2022-08-19T05:43:11;17.20;99.90
52301;DHT22;38528;53.214;6.562;2022-08-19T05:45:41;16.70;99.90
52301;DHT22;38528;53.214;6.562;2022-08-19T05:48:10;16.80;99.90
52301;DHT22;38528;53.214;6.562;2022-08-19T05:50:38;16.80;99.90
52301;DHT22;38528;53.214;6.562;2022-08-19T05:53:04;16.80;99.90
52301;DHT22;38528;53.214;6.562;2022-08-19T05:55:30;16.90;99.90
52301;DHT22;38528;53.214;6.562;2022-08-19T05:57:56;16.90;99.90
52301;DHT22;38528;53.214;6.562;2022-08-19T06:00:22;16.90;99.90
52301;DHT22;38528;53.214;6.562;2022-08-19T06:02:48;16.90;99.90
52301;DHT22;38528;53.214;6.562;2022-08-19T06:05:14;17.00;99.90
52301;DHT22;38528;53.214;6.562;2022-08-19T06:07:40;17.00;99.90
52301;DHT22;38528;53.214;6.562;2022-08-19T06:10:08;17.10;99.90
52301;DHT22;38528;53.214;6.562;2022-08-19T06:12:35;17.20;99.90
52301;DHT22;38528;53.214;6.562;2022-08-19T06:15:10;17.20;99.90
52301;DHT22;38528;53.214;6.562;2022-08-19T06:17:36;17.30;99.90
52301;DHT22;38528;53.214;6.562;2022-08-19T06:20:05;17.30;99.90
52301;DHT22;38528;53.214;6.562;2022-08-19T06:22:31;17.30;99.90
52301;DHT22;38528;53.214;6.562;2022-08-19T06:25:03;17.40;99.90
52301;DHT22;38528;53.214;6.562;2022-08-19T06:27:29;17.50;99.90
52301;DHT22;38528;53.214;6.562;2022-08-19T06:29:56;17.50;99.90
52301;DHT22;38528;53.214;6.562;2022-08-19T06:32:21;17.60;99.90
52301;DHT22;38528;53.214;6.562;2022-08-19T06:34:47;17.60;99.90
52301;DHT22;38528;53.214;6.562;2022-08-19T06:37:13;17.70;99.90
52301;DHT22;38528;53.214;6.562;2022-08-19T06:39:41;17.80;99.90
52301;DHT22;38528;53.214;6.562;2022-08-19T06:42:07;18.00;99.90
52301;DHT22;38528;53.214;6.562;2022-08-19T06:44:38;17.90;99.90
52301;DHT22;38528;53.214;6.562;2022-08-19T06:47:07;18.00;99.90
52301;DHT22;38528;53.214;6.562;2022-08-19T06:49:33;18.00;99.90
52301;DHT22;38528;53.214;6.562;2022-08-19T06:52:00;18.10;99.90
52301;DHT22;38528;53.214;6.562;2022-08-19T06:54:27;18.10;99.90
52301;DHT22;38528;53.214;6.562;2022-08-19T06:56:55;18.20;99.90
52301;DHT22;38528;53.214;6.562;2022-08-19T06:59:23;18.30;99.90
52301;DHT22;38528;53.214;6.562;2022-08-19T07:01:54;18.30;99.90
52301;DHT22;38528;53.214;6.562;2022-08-19T07:04:27;18.40;99.90
52301;DHT22;38528;53.214;6.562;2022-08-19T07:07:04;18.50;99.90
52301;DHT22;38528;53.214;6.562;2022-08-19T07:09:34;18.60;99.90
52301;DHT22;38528;53.214;6.562;2022-08-19T07:12:03;18.70;99.90
52301;DHT22;38528;53.214;6.562;2022-08-19T07:14:29;18.80;99.90
52301;DHT22;38528;53.214;6.562;2022-08-19T07:16:55;18.90;99.90
52301;DHT22;38528;53.214;6.562;2022-08-19T07:19:23;19.00;99.90
52301;DHT22;38528;53.214;6.562;2022-08-19T07:21:50;19.10;99.90
52301;DHT22;38528;53.214;6.562;2022-08-19T07:24:24;19.20;99.90
52301;DHT22;38528;53.214;6.562;2022-08-19T07:26:51;19.30;99.90
52301;DHT22;38528;53.214;6.562;2022-08-19T07:29:18;19.30;99.90
52301;DHT22;38528;53.214;6.562;2022-08-19T07:31:44;19.40;99.90
52301;DHT22;38528;53.214;6.562;2022-08-19T07:34:11;19.50;99.90
52301;DHT22;38528;53.214;6.562;2022-08-19T07:36:40;19.60;99.90
52301;DHT22;38528;53.214;6.562;2022-08-19T07:39:25;19.70;99.90
52301;DHT22;38528;53.214;6.562;2022-08-19T07:41:51;19.70;99.90
52301;DHT22;38528;53.214;6.562;2022-08-19T07:44:19;19.80;99.90
52301;DHT22;38528;53.214;6.562;2022-08-19T07:46:47;19.90;99.90
52301;DHT22;38528;53.214;6.562;2022-08-19T07:49:14;20.10;99.90
52301;DHT22;38528;53.214;6.562;2022-08-19T07:51:46;20.20;99.90
52301;DHT22;38528;53.214;6.562;2022-08-19T07:54:13;20.30;99.90
52301;DHT22;38528;53.214;6.562;2022-08-19T07:56:39;20.40;99.90
52301;DHT22;38528;53.214;6.562;2022-08-19T07:59:05;20.50;99.90
52301;DHT22;38528;53.214;6.562;2022-08-19T08:01:30;20.60;99.90
52301;DHT22;38528;53.214;6.562;2022-08-19T08:03:57;20.70;99.90
52301;DHT22;38528;53.214;6.562;2022-08-19T08:06:42;20.80;99.90
52301;DHT22;38528;53.214;6.562;2022-08-19T08:09:30;20.90;99.90
52301;DHT22;38528;53.214;6.562;2022-08-19T08:12:02;21.00;99.90
52301;DHT22;38528;53.214;6.562;2022-08-19T08:14:45;21.10;99.90
52301;DHT22;38528;53.214;6.562;2022-08-19T08:17:13;21.20;99.90
52301;DHT22;38528;53.214;6.562;2022-08-19T08:19:39;21.30;99.90
52301;DHT22;38528;53.214;6.562;2022-08-19T08:22:07;21.40;99.90
52301;DHT22;38528;53.214;6.562;2022-08-19T08:24:33;21.50;99.90
52301;DHT22;38528;53.214;6.562;2022-08-19T08:27:01;21.60;99.90
52301;DHT22;38528;53.214;6.562;2022-08-19T08:29:28;21.70;99.90
52301;DHT22;38528;53.214;6.562;2022-08-19T08:31:55;21.80;99.90
52301;DHT22;38528;53.214;6.562;2022-08-19T08:34:21;21.90;99.90
52301;DHT22;38528;53.214;6.562;2022-08-19T08:36:47;22.00;99.90
52301;DHT22;38528;53.214;6.562;2022-08-19T08:39:17;22.10;99.90
52301;DHT22;38528;53.214;6.562;2022-08-19T08:42:09;22.30;99.90
52301;DHT22;38528;53.214;6.562;2022-08-19T08:47:10;22.60;99.90
52301;DHT22;38528;53.214;6.562;2022-08-19T08:52:11;22.80;99.90
52301;DHT22;38528;53.214;6.562;2022-08-19T08:54:45;23.00;99.90
52301;DHT22;38528;53.214;6.562;2022-08-19T08:57:32;23.20;99.90
52301;DHT22;38528;53.214;6.562;2022-08-19T09:00:03;23.30;99.90
52301;DHT22;38528;53.214;6.562;2022-08-19T09:02:32;23.40;99.90
52301;DHT22;38528;53.214;6.562;2022-08-19T09:04:57;23.50;99.90
52301;DHT22;38528;53.214;6.562;2022-08-19T09:07:38;23.70;99.90
52301;DHT22;38528;53.214;6.562;2022-08-19T09:10:19;23.80;99.90
52301;DHT22;38528;53.214;6.562;2022-08-19T09:15:24;24.30;99.90
52301;DHT22;38528;53.214;6.562;2022-08-19T09:17:53;24.50;99.90
52301;DHT22;38528;53.214;6.562;2022-08-19T09:20:22;24.80;99.90
52301;DHT22;38528;53.214;6.562;2022-08-19T09:22:48;25.00;99.90
52301;DHT22;38528;53.214;6.562;2022-08-19T09:25:20;25.20;99.90
52301;DHT22;38528;53.214;6.562;2022-08-19T09:27:49;25.50;99.90
52301;DHT22;38528;53.214;6.562;2022-08-19T09:30:18;25.90;99.90
52301;DHT22;38528;53.214;6.562;2022-08-19T09:32:45;26.20;99.90
52301;DHT22;38528;53.214;6.562;2022-08-19T09:35:12;26.50;99.90
52301;DHT22;38528;53.214;6.562;2022-08-19T09:37:38;26.80;99.90
52301;DHT22;38528;53.214;6.562;2022-08-19T09:40:04;27.00;99.90
52301;DHT22;38528;53.214;6.562;2022-08-19T09:42:30;27.30;99.90
52301;DHT22;38528;53.214;6.562;2022-08-19T09:44:56;27.50;99.90
52301;DHT22;38528;53.214;6.562;2022-08-19T09:47:21;28.00;99.90
52301;DHT22;38528;53.214;6.562;2022-08-19T09:49:47;28.20;99.90
52301;DHT22;38528;53.214;6.562;2022-08-19T09:52:14;28.40;99.90
52301;DHT22;38528;53.214;6.562;2022-08-19T09:54:41;28.50;99.90
52301;DHT22;38528;53.214;6.562;2022-08-19T09:57:07;28.70;99.90
52301;DHT22;38528;53.214;6.562;2022-08-19T09:59:33;28.70;99.90
52301;DHT22;38528;53.214;6.562;2022-08-19T10:01:59;28.80;99.90
52301;DHT22;38528;53.214;6.562;2022-08-19T10:04:24;29.10;99.90
52301;DHT22;38528;53.214;6.562;2022-08-19T10:07:10;29.30;99.90
52301;DHT22;38528;53.214;6.562;2022-08-19T10:09:36;29.50;99.90
52301;DHT22;38528;53.214;6.562;2022-08-19T10:12:03;29.70;99.90
52301;DHT22;38528;53.214;6.562;2022-08-19T10:14:30;29.80;99.90
52301;DHT22;38528;53.214;6.562;2022-08-19T10:16:56;29.90;99.90
52301;DHT22;38528;53.214;6.562;2022-08-19T10:19:22;30.10;99.90
52301;DHT22;38528;53.214;6.562;2022-08-19T10:21:48;30.20;99.90
52301;DHT22;38528;53.214;6.562;2022-08-19T10:24:13;30.40;99.90
52301;DHT22;38528;53.214;6.562;2022-08-19T10:26:40;30.60;99.90
52301;DHT22;38528;53.214;6.562;2022-08-19T10:29:13;31.30;98.20
52301;DHT22;38528;53.214;6.562;2022-08-19T10:31:41;31.70;97.20
52301;DHT22;38528;53.214;6.562;2022-08-19T10:34:07;31.70;97.00
52301;DHT22;38528;53.214;6.562;2022-08-19T10:36:35;31.80;96.60
52301;DHT22;38528;53.214;6.562;2022-08-19T10:39:07;32.00;95.90
52301;DHT22;38528;53.214;6.562;2022-08-19T10:41:36;32.10;96.00
52301;DHT22;38528;53.214;6.562;2022-08-19T10:44:10;32.00;96.10
52301;DHT22;38528;53.214;6.562;2022-08-19T10:46:39;31.70;96.50
52301;DHT22;38528;53.214;6.562;2022-08-19T10:49:07;31.30;96.70
52301;DHT22;38528;53.214;6.562;2022-08-19T10:51:33;31.20;96.60
52301;DHT22;38528;53.214;6.562;2022-08-19T10:54:18;31.20;97.10
52301;DHT22;38528;53.214;6.562;2022-08-19T10:56:44;31.40;96.70
52301;DHT22;38528;53.214;6.562;2022-08-19T10:59:24;31.60;96.30
52301;DHT22;38528;53.214;6.562;2022-08-19T11:01:53;31.80;96.00
52301;DHT22;38528;53.214;6.562;2022-08-19T11:04:19;31.90;96.00
52301;DHT22;38528;53.214;6.562;2022-08-19T11:06:47;32.00;96.00
52301;DHT22;38528;53.214;6.562;2022-08-19T11:09:16;32.10;95.70
52301;DHT22;38528;53.214;6.562;2022-08-19T11:11:42;32.30;95.90
52301;DHT22;38528;53.214;6.562;2022-08-19T11:14:14;32.50;95.90
52301;DHT22;38528;53.214;6.562;2022-08-19T11:16:42;33.00;94.50
52301;DHT22;38528;53.214;6.562;2022-08-19T11:19:10;33.20;94.70
52301;DHT22;38528;53.214;6.562;2022-08-19T11:21:39;33.70;93.80
52301;DHT22;38528;53.214;6.562;2022-08-19T11:24:22;34.20;93.20
52301;DHT22;38528;53.214;6.562;2022-08-19T11:26:50;34.90;93.00
52301;DHT22;38528;53.214;6.562;2022-08-19T11:29:18;35.90;91.50
52301;DHT22;38528;53.214;6.562;2022-08-19T11:31:47;36.80;90.60
52301;DHT22;38528;53.214;6.562;2022-08-19T11:34:17;37.30;90.00
52301;DHT22;38528;53.214;6.562;2022-08-19T11:36:45;37.20;88.30
52301;DHT22;38528;53.214;6.562;2022-08-19T11:39:13;37.90;86.50
52301;DHT22;38528;53.214;6.562;2022-08-19T11:41:39;37.90;86.50
52301;DHT22;38528;53.214;6.562;2022-08-19T11:44:05;38.00;84.90
52301;DHT22;38528;53.214;6.562;2022-08-19T11:46:34;37.70;83.40
52301;DHT22;38528;53.214;6.562;2022-08-19T11:49:00;36.90;83.10
52301;DHT22;38528;53.214;6.562;2022-08-19T11:51:27;35.50;85.10
52301;DHT22;38528;53.214;6.562;2022-08-19T11:53:54;34.30;87.50
52301;DHT22;38528;53.214;6.562;2022-08-19T11:56:21;33.60;88.20
52301;DHT22;38528;53.214;6.562;2022-08-19T11:58:48;32.70;89.50
52301;DHT22;38528;53.214;6.562;2022-08-19T12:01:16;32.00;90.60
52301;DHT22;38528;53.214;6.562;2022-08-19T12:03:46;31.40;91.30
52301;DHT22;38528;53.214;6.562;2022-08-19T12:06:16;31.00;91.70
52301;DHT22;38528;53.214;6.562;2022-08-19T12:08:43;30.80;92.30
52301;DHT22;38528;53.214;6.562;2022-08-19T12:11:11;30.60;93.00
52301;DHT22;38528;53.214;6.562;2022-08-19T12:13:38;30.50;93.20
52301;DHT22;38528;53.214;6.562;2022-08-19T12:16:12;30.40;92.90
52301;DHT22;38528;53.214;6.562;2022-08-19T12:18:40;30.40;92.70
52301;DHT22;38528;53.214;6.562;2022-08-19T12:21:13;30.10;92.90
52301;DHT22;38528;53.214;6.562;2022-08-19T12:23:40;30.00;93.20
52301;DHT22;38528;53.214;6.562;2022-08-19T12:26:09;29.80;93.30
52301;DHT22;38528;53.214;6.562;2022-08-19T12:28:35;29.70;93.60
52301;DHT22;38528;53.214;6.562;2022-08-19T12:31:01;29.60;93.90
52301;DHT22;38528;53.214;6.562;2022-08-19T12:33:26;29.50;94.20
52301;DHT22;38528;53.214;6.562;2022-08-19T12:35:54;29.40;94.30
52301;DHT22;38528;53.214;6.562;2022-08-19T12:38:20;29.20;94.60
52301;DHT22;38528;53.214;6.562;2022-08-19T12:40:49;29.10;94.90
52301;DHT22;38528;53.214;6.562;2022-08-19T12:43:17;29.00;95.20
52301;DHT22;38528;53.214;6.562;2022-08-19T12:45:43;29.00;95.50
52301;DHT22;38528;53.214;6.562;2022-08-19T12:48:10;29.10;95.60
52301;DHT22;38528;53.214;6.562;2022-08-19T12:50:39;29.10;95.70
52301;DHT22;38528;53.214;6.562;2022-08-19T12:53:05;29.20;95.50
52301;DHT22;38528;53.214;6.562;2022-08-19T12:55:30;29.20;95.10
52301;DHT22;38528;53.214;6.562;2022-08-19T12:57:57;29.10;94.90
52301;DHT22;38528;53.214;6.562;2022-08-19T13:00:23;29.00;94.80
52301;DHT22;38528;53.214;6.562;2022-08-19T13:02:51;28.80;95.20
52301;DHT22;38528;53.214;6.562;2022-08-19T13:05:23;28.80;95.60
52301;DHT22;38528;53.214;6.562;2022-08-19T13:07:51;28.70;95.90
52301;DHT22;38528;53.214;6.562;2022-08-19T13:10:19;28.60;96.20
52301;DHT22;38528;53.214;6.562;2022-08-19T13:12:49;28.60;96.70
52301;DHT22;38528;53.214;6.562;2022-08-19T13:15:17;28.40;97.20
52301;DHT22;38528;53.214;6.562;2022-08-19T13:17:48;28.40;97.70
52301;DHT22;38528;53.214;6.562;2022-08-19T13:20:18;28.20;98.00
52301;DHT22;38528;53.214;6.562;2022-08-19T13:22:45;28.10;98.40
52301;DHT22;38528;53.214;6.562;2022-08-19T13:25:12;28.20;98.80
52301;DHT22;38528;53.214;6.562;2022-08-19T13:27:39;28.50;98.90
52301;DHT22;38528;53.214;6.562;2022-08-19T13:30:07;28.60;98.90
52301;DHT22;38528;53.214;6.562;2022-08-19T13:32:52;28.70;99.80
52301;DHT22;38528;53.214;6.562;2022-08-19T13:35:37;28.80;99.90
52301;DHT22;38528;53.214;6.562;2022-08-19T13:38:03;28.60;99.90
52301;DHT22;38528;53.214;6.562;2022-08-19T13:40:31;28.60;99.90
52301;DHT22;38528;53.214;6.562;2022-08-19T13:43:00;28.40;99.90
52301;DHT22;38528;53.214;6.562;2022-08-19T13:45:28;28.20;99.90
52301;DHT22;38528;53.214;6.562;2022-08-19T13:47:56;28.00;99.90
52301;DHT22;38528;53.214;6.562;2022-08-19T13:50:24;27.80;99.90
52301;DHT22;38528;53.214;6.562;2022-08-19T13:52:51;27.60;99.90
52301;DHT22;38528;53.214;6.562;2022-08-19T13:55:17;27.40;99.90
52301;DHT22;38528;53.214;6.562;2022-08-19T13:57:43;27.20;99.90
52301;DHT22;38528;53.214;6.562;2022-08-19T14:00:11;27.10;99.90
52301;DHT22;38528;53.214;6.562;2022-08-19T14:02:39;26.90;99.90
52301;DHT22;38528;53.214;6.562;2022-08-19T14:05:07;26.70;99.90
52301;DHT22;38528;53.214;6.562;2022-08-19T14:07:34;26.60;99.90
52301;DHT22;38528;53.214;6.562;2022-08-19T14:10:00;26.50;99.90
52301;DHT22;38528;53.214;6.562;2022-08-19T14:12:25;26.40;99.90
52301;DHT22;38528;53.214;6.562;2022-08-19T14:14:51;26.30;99.90
52301;DHT22;38528;53.214;6.562;2022-08-19T14:17:17;26.30;99.90
52301;DHT22;38528;53.214;6.562;2022-08-19T14:19:43;26.20;99.90
52301;DHT22;38528;53.214;6.562;2022-08-19T14:22:09;26.00;99.90
52301;DHT22;38528;53.214;6.562;2022-08-19T14:24:37;26.00;99.90
52301;DHT22;38528;53.214;6.562;2022-08-19T14:27:05;25.90;99.90
52301;DHT22;38528;53.214;6.562;2022-08-19T14:29:32;25.80;99.90
52301;DHT22;38528;53.214;6.562;2022-08-19T14:31:57;25.80;99.90
52301;DHT22;38528;53.214;6.562;2022-08-19T14:34:25;25.70;99.90
52301;DHT22;38528;53.214;6.562;2022-08-19T14:36:51;25.70;99.90
52301;DHT22;38528;53.214;6.562;2022-08-19T14:39:17;25.70;99.90
52301;DHT22;38528;53.214;6.562;2022-08-19T14:41:42;25.90;99.90
52301;DHT22;38528;53.214;6.562;2022-08-19T14:44:08;25.90;99.90
52301;DHT22;38528;53.214;6.562;2022-08-19T14:46:38;25.90;99.90
52301;DHT22;38528;53.214;6.562;2022-08-19T14:49:03;26.00;99.90
52301;DHT22;38528;53.214;6.562;2022-08-19T14:51:29;26.00;99.90
52301;DHT22;38528;53.214;6.562;2022-08-19T14:53:55;26.00;99.90
52301;DHT22;38528;53.214;6.562;2022-08-19T14:56:24;26.10;99.90
52301;DHT22;38528;53.214;6.562;2022-08-19T14:58:50;26.10;99.90
52301;DHT22;38528;53.214;6.562;2022-08-19T15:01:17;26.10;99.90
52301;DHT22;38528;53.214;6.562;2022-08-19T15:03:43;26.20;99.90
52301;DHT22;38528;53.214;6.562;2022-08-19T15:06:09;26.20;99.90
52301;DHT22;38528;53.214;6.562;2022-08-19T15:08:36;26.20;99.90
52301;DHT22;38528;53.214;6.562;2022-08-19T15:11:10;26.30;99.90
52301;DHT22;38528;53.214;6.562;2022-08-19T15:13:37;26.30;99.90
52301;DHT22;38528;53.214;6.562;2022-08-19T15:16:03;26.30;99.90
52301;DHT22;38528;53.214;6.562;2022-08-19T15:18:28;26.30;99.90
52301;DHT22;38528;53.214;6.562;2022-08-19T15:20:54;26.20;99.90
52301;DHT22;38528;53.214;6.562;2022-08-19T15:23:21;26.20;99.90
52301;DHT22;38528;53.214;6.562;2022-08-19T15:25:47;26.30;99.90
52301;DHT22;38528;53.214;6.562;2022-08-19T15:28:13;26.30;99.90
52301;DHT22;38528;53.214;6.562;2022-08-19T15:30:40;26.30;99.90
52301;DHT22;38528;53.214;6.562;2022-08-19T15:33:06;26.20;99.90
52301;DHT22;38528;53.214;6.562;2022-08-19T15:35:32;26.30;99.90
52301;DHT22;38528;53.214;6.562;2022-08-19T15:37:58;26.20;99.90
52301;DHT22;38528;53.214;6.562;2022-08-19T15:40:25;26.20;99.90
52301;DHT22;38528;53.214;6.562;2022-08-19T15:42:53;26.20;99.90
52301;DHT22;38528;53.214;6.562;2022-08-19T15:45:20;26.20;99.90
52301;DHT22;38528;53.214;6.562;2022-08-19T15:47:46;26.30;99.90